QTR3M OTHH-OMDB
Flight info
| Callsign | QTR3M |
|---|---|
| Flight time | N/A |
| Altitude | 31000 |
| Route | DATRI L564 BAT/N0444F250 DCT KUTNA DCT MIGMA M628 RIGIL G783 ASPED Q308 KIPOK Q568 IMPED |
| Aircraft | B77W/H-SDE1E2E3FGHIJ2J3J4J5M1RWXY/LB1D1 |
Departure
| Time | 2026-05-06 09:52 |
|---|---|
| Airport | Hamad International Airport (OTHH) |
Arrival
| Time | N/A |
|---|---|
| Airport | Dubai International Airport (OMDB) |
| Time | Latitude | Longitude | Altitude | Speed | Heading |
|---|---|---|---|---|---|
| 2026-05-06 09:30 | 25.26090 | 51.60983 | 54 ft | 0 kts | 158° |
| 2026-05-06 09:35 | 25.26097 | 51.60980 | 25 ft | 2 kts | 158° |
| 2026-05-06 09:36 | 25.26116 | 51.60972 | 25 ft | 3 kts | 158° |
| 2026-05-06 09:36 | 25.26133 | 51.60965 | 25 ft | 2 kts | 158° |
| 2026-05-06 09:36 | 25.26149 | 51.60959 | 25 ft | 3 kts | 172° |
| 2026-05-06 09:36 | 25.26166 | 51.60958 | 25 ft | 3 kts | 195° |
| 2026-05-06 09:37 | 25.26181 | 51.60964 | 25 ft | 3 kts | 221° |
| 2026-05-06 09:37 | 25.26193 | 51.60978 | 27 ft | 3 kts | 240° |
| 2026-05-06 09:37 | 25.26201 | 51.60998 | 26 ft | 3 kts | 248° |
| 2026-05-06 09:37 | 25.26208 | 51.61017 | 25 ft | 2 kts | 248° |
| 2026-05-06 09:38 | 25.26210 | 51.61024 | 25 ft | 0 kts | 248° |
| 2026-05-06 09:44 | 25.26209 | 51.61020 | 25 ft | 3 kts | 248° |
| 2026-05-06 09:44 | 25.26199 | 51.60991 | 27 ft | 5 kts | 248° |
| 2026-05-06 09:44 | 25.26169 | 51.60910 | 27 ft | 15 kts | 248° |
| 2026-05-06 09:44 | 25.26132 | 51.60806 | 27 ft | 15 kts | 248° |
| 2026-05-06 09:45 | 25.26095 | 51.60703 | 27 ft | 15 kts | 248° |
| 2026-05-06 09:45 | 25.26057 | 51.60598 | 30 ft | 15 kts | 248° |
| 2026-05-06 09:45 | 25.26027 | 51.60552 | 27 ft | 5 kts | 197° |
| 2026-05-06 09:45 | 25.25989 | 51.60558 | 29 ft | 6 kts | 166° |
| 2026-05-06 09:46 | 25.25947 | 51.60573 | 29 ft | 8 kts | 161° |
| 2026-05-06 09:46 | 25.25887 | 51.60602 | 29 ft | 10 kts | 156° |
| 2026-05-06 09:46 | 25.25824 | 51.60631 | 30 ft | 10 kts | 158° |
| 2026-05-06 09:46 | 25.25761 | 51.60659 | 26 ft | 10 kts | 158° |
| 2026-05-06 09:47 | 25.25698 | 51.60687 | 29 ft | 10 kts | 159° |
| 2026-05-06 09:47 | 25.25639 | 51.60711 | 30 ft | 8 kts | 165° |
| 2026-05-06 09:47 | 25.25604 | 51.60691 | 30 ft | 0 kts | 232° |
| 2026-05-06 09:49 | 25.25594 | 51.60673 | 26 ft | 10 kts | 242° |
| 2026-05-06 09:49 | 25.25567 | 51.60578 | 23 ft | 12 kts | 267° |
| 2026-05-06 09:49 | 25.25610 | 51.60520 | 20 ft | 0 kts | 336° |
| 2026-05-06 09:51 | 25.25685 | 51.60487 | 23 ft | 32 kts | 339° |
| 2026-05-06 09:51 | 25.26138 | 51.60289 | 26 ft | 106 kts | 338° |
| 2026-05-06 09:51 | 25.27028 | 51.59895 | 22 ft | 166 kts | 338° |
| 2026-05-06 09:51 | 25.28167 | 51.59380 | 378 ft | 178 kts | 339° |
| 2026-05-06 09:52 | 25.29320 | 51.58870 | 937 ft | 186 kts | 341° |
| 2026-05-06 09:52 | 25.30567 | 51.58323 | 1343 ft | 201 kts | 341° |
| 2026-05-06 09:52 | 25.31947 | 51.57719 | 1568 ft | 224 kts | 341° |
| 2026-05-06 09:52 | 25.33471 | 51.57050 | 1817 ft | 248 kts | 340° |
| 2026-05-06 09:53 | 25.35116 | 51.56325 | 2362 ft | 259 kts | 340° |
| 2026-05-06 09:53 | 25.36803 | 51.55575 | 3130 ft | 264 kts | 338° |
| 2026-05-06 09:53 | 25.38553 | 51.54790 | 3682 ft | 274 kts | 345° |
| 2026-05-06 09:53 | 25.40438 | 51.54659 | 4263 ft | 272 kts | 14° |
| 2026-05-06 09:54 | 25.42089 | 51.55512 | 5136 ft | 268 kts | 39° |
| 2026-05-06 09:54 | 25.43253 | 51.57137 | 5780 ft | 275 kts | 66° |
| 2026-05-06 09:54 | 25.43624 | 51.59211 | 6481 ft | 279 kts | 91° |
| 2026-05-06 09:54 | 25.43141 | 51.61286 | 6948 ft | 283 kts | 118° |
| 2026-05-06 09:55 | 25.41851 | 51.62920 | 7564 ft | 289 kts | 144° |
| 2026-05-06 09:55 | 25.40070 | 51.63993 | 8245 ft | 292 kts | 155° |
| 2026-05-06 09:55 | 25.38201 | 51.64879 | 8999 ft | 293 kts | 157° |
| 2026-05-06 09:55 | 25.36319 | 51.65737 | 9734 ft | 294 kts | 158° |
| 2026-05-06 09:56 | 25.34407 | 51.66607 | 10325 ft | 300 kts | 158° |
| 2026-05-06 09:56 | 25.32434 | 51.67503 | 10574 ft | 323 kts | 158° |
| 2026-05-06 09:56 | 25.30288 | 51.68474 | 10791 ft | 346 kts | 157° |
| 2026-05-06 09:56 | 25.27979 | 51.69517 | 10965 ft | 370 kts | 158° |
| 2026-05-06 09:57 | 25.25556 | 51.70609 | 11535 ft | 380 kts | 158° |
| 2026-05-06 09:57 | 25.23085 | 51.71724 | 11933 ft | 388 kts | 158° |
| 2026-05-06 09:57 | 25.20566 | 51.72860 | 12688 ft | 393 kts | 158° |
| 2026-05-06 09:57 | 25.18025 | 51.74010 | 13567 ft | 397 kts | 158° |
| 2026-05-06 09:58 | 25.15473 | 51.75168 | 14432 ft | 397 kts | 158° |
| 2026-05-06 09:58 | 25.12905 | 51.76336 | 15189 ft | 402 kts | 158° |
| 2026-05-06 09:58 | 25.10303 | 51.77521 | 15919 ft | 407 kts | 158° |
| 2026-05-06 09:58 | 25.07708 | 51.78706 | 16656 ft | 412 kts | 158° |
| 2026-05-06 09:59 | 25.05050 | 51.79922 | 17289 ft | 415 kts | 158° |
| 2026-05-06 09:59 | 25.02360 | 51.81156 | 17620 ft | 421 kts | 158° |
| 2026-05-06 09:59 | 24.99626 | 51.82313 | 17730 ft | 422 kts | 166° |
| 2026-05-06 09:59 | 24.96708 | 51.82518 | 17778 ft | 422 kts | 189° |
| 2026-05-06 10:00 | 24.93951 | 51.81488 | 17817 ft | 421 kts | 211° |
| 2026-05-06 10:00 | 24.91747 | 51.79404 | 17819 ft | 418 kts | 231° |
| 2026-05-06 10:00 | 24.89893 | 51.76954 | 17853 ft | 418 kts | 228° |
| 2026-05-06 10:00 | 24.87854 | 51.74651 | 17826 ft | 421 kts | 225° |
| 2026-05-06 10:01 | 24.85761 | 51.72449 | 17835 ft | 422 kts | 224° |
| 2026-05-06 10:01 | 24.83622 | 51.70226 | 17830 ft | 422 kts | 224° |
| 2026-05-06 10:01 | 24.81495 | 51.67996 | 17827 ft | 422 kts | 224° |
| 2026-05-06 10:01 | 24.79381 | 51.65753 | 17828 ft | 422 kts | 225° |
| 2026-05-06 10:02 | 24.77285 | 51.63513 | 17830 ft | 421 kts | 225° |
| 2026-05-06 10:02 | 24.75178 | 51.61259 | 17828 ft | 421 kts | 225° |
| 2026-05-06 10:02 | 24.73057 | 51.59102 | 17826 ft | 420 kts | 219° |
| 2026-05-06 10:02 | 24.70565 | 51.57347 | 17832 ft | 422 kts | 208° |
| 2026-05-06 10:03 | 24.67886 | 51.56107 | 17835 ft | 424 kts | 198° |
| 2026-05-06 10:03 | 24.65019 | 51.55340 | 17832 ft | 425 kts | 193° |
| 2026-05-06 10:03 | 24.62121 | 51.54677 | 17827 ft | 425 kts | 192° |
| 2026-05-06 10:03 | 24.59228 | 51.54029 | 17827 ft | 425 kts | 192° |
| 2026-05-06 10:04 | 24.56325 | 51.53371 | 17830 ft | 425 kts | 193° |
| 2026-05-06 10:04 | 24.53441 | 51.52708 | 17827 ft | 425 kts | 193° |
| 2026-05-06 10:04 | 24.50543 | 51.52032 | 17993 ft | 427 kts | 193° |
| 2026-05-06 10:04 | 24.47643 | 51.51349 | 18640 ft | 425 kts | 193° |
| 2026-05-06 10:05 | 24.44759 | 51.50668 | 19262 ft | 424 kts | 193° |
| 2026-05-06 10:05 | 24.41865 | 51.49983 | 19810 ft | 426 kts | 194° |
| 2026-05-06 10:05 | 24.39002 | 51.49305 | 20271 ft | 429 kts | 194° |
| 2026-05-06 10:05 | 24.36075 | 51.48613 | 20744 ft | 433 kts | 194° |
| 2026-05-06 10:06 | 24.33117 | 51.47915 | 21231 ft | 435 kts | 194° |
| 2026-05-06 10:06 | 24.30152 | 51.47215 | 21722 ft | 438 kts | 194° |
| 2026-05-06 10:06 | 24.27169 | 51.46512 | 22186 ft | 441 kts | 194° |
| 2026-05-06 10:06 | 24.24151 | 51.45804 | 22639 ft | 444 kts | 193° |
| 2026-05-06 10:07 | 24.21081 | 51.45290 | 23043 ft | 449 kts | 188° |
| 2026-05-06 10:07 | 24.17954 | 51.45140 | 23466 ft | 453 kts | 182° |
| 2026-05-06 10:07 | 24.14846 | 51.45167 | 23843 ft | 454 kts | 181° |
| 2026-05-06 10:07 | 24.11680 | 51.45209 | 24242 ft | 456 kts | 181° |
| 2026-05-06 10:08 | 24.08499 | 51.45250 | 24625 ft | 457 kts | 182° |
| 2026-05-06 10:08 | 24.05316 | 51.45285 | 24991 ft | 458 kts | 182° |
| 2026-05-06 10:08 | 24.02120 | 51.45314 | 25354 ft | 460 kts | 182° |
| 2026-05-06 10:08 | 23.98921 | 51.45338 | 25707 ft | 462 kts | 182° |
| 2026-05-06 10:09 | 23.95702 | 51.45359 | 26046 ft | 464 kts | 182° |
| 2026-05-06 10:09 | 23.92467 | 51.45379 | 26391 ft | 465 kts | 182° |
| 2026-05-06 10:09 | 23.89223 | 51.45398 | 26761 ft | 466 kts | 182° |
| 2026-05-06 10:09 | 23.86021 | 51.45417 | 27120 ft | 467 kts | 182° |
| 2026-05-06 10:10 | 23.82766 | 51.45436 | 27453 ft | 469 kts | 182° |
| 2026-05-06 10:10 | 23.79495 | 51.45456 | 27758 ft | 471 kts | 182° |
| 2026-05-06 10:10 | 23.76212 | 51.45475 | 28070 ft | 473 kts | 182° |
| 2026-05-06 10:10 | 23.72917 | 51.45495 | 28373 ft | 474 kts | 182° |
| 2026-05-06 10:11 | 23.69610 | 51.45516 | 28688 ft | 476 kts | 182° |
| 2026-05-06 10:11 | 23.66292 | 51.45536 | 29001 ft | 477 kts | 182° |
| 2026-05-06 10:11 | 23.62973 | 51.45557 | 29426 ft | 475 kts | 182° |
| 2026-05-06 10:11 | 23.59687 | 51.45577 | 29905 ft | 473 kts | 183° |
| 2026-05-06 10:12 | 23.56440 | 51.45598 | 30278 ft | 471 kts | 183° |
| 2026-05-06 10:12 | 23.53167 | 51.45618 | 30604 ft | 471 kts | 183° |
| 2026-05-06 10:12 | 23.49885 | 51.45637 | 30718 ft | 472 kts | 183° |
| 2026-05-06 10:12 | 23.46606 | 51.45656 | 30759 ft | 472 kts | 183° |
| 2026-05-06 10:13 | 23.40040 | 51.45696 | 30771 ft | 472 kts | 183° |
| 2026-05-06 10:13 | 23.33518 | 51.45735 | 30777 ft | 472 kts | 183° |
| 2026-05-06 10:14 | 23.26955 | 51.45775 | 30771 ft | 472 kts | 183° |
| 2026-05-06 10:14 | 23.20391 | 51.45823 | 30771 ft | 472 kts | 182° |
| 2026-05-06 10:15 | 23.13823 | 51.45930 | 30767 ft | 472 kts | 182° |
| 2026-05-06 10:15 | 23.07252 | 51.46042 | 30765 ft | 472 kts | 182° |
| 2026-05-06 10:16 | 23.00723 | 51.46145 | 30763 ft | 473 kts | 182° |
| 2026-05-06 10:16 | 22.94158 | 51.46377 | 30753 ft | 475 kts | 173° |
| 2026-05-06 10:17 | 22.90984 | 51.47460 | 30761 ft | 483 kts | 156° |
| 2026-05-06 10:17 | 22.88184 | 51.49517 | 30765 ft | 492 kts | 140° |
| 2026-05-06 10:17 | 22.85978 | 51.52372 | 30767 ft | 499 kts | 124° |
| 2026-05-06 10:17 | 22.84485 | 51.55779 | 30769 ft | 504 kts | 110° |
| 2026-05-06 10:18 | 22.83861 | 51.59463 | 30752 ft | 505 kts | 93° |
| 2026-05-06 10:18 | 22.83802 | 51.63278 | 30773 ft | 509 kts | 91° |
| 2026-05-06 10:18 | 22.83814 | 51.70973 | 30761 ft | 511 kts | 91° |
| 2026-05-06 10:19 | 22.83771 | 51.78678 | 30754 ft | 511 kts | 92° |
| 2026-05-06 10:19 | 22.83651 | 51.86377 | 30755 ft | 511 kts | 92° |
| 2026-05-06 10:20 | 22.83505 | 51.94019 | 30753 ft | 511 kts | 92° |
| 2026-05-06 10:20 | 22.83356 | 52.01732 | 30758 ft | 511 kts | 92° |
| 2026-05-06 10:21 | 22.83209 | 52.09424 | 30758 ft | 511 kts | 92° |
| 2026-05-06 10:21 | 22.83060 | 52.17127 | 30750 ft | 511 kts | 92° |
| 2026-05-06 10:22 | 22.82907 | 52.24786 | 30754 ft | 511 kts | 92° |
| 2026-05-06 10:22 | 22.82750 | 52.32489 | 30750 ft | 511 kts | 92° |
| 2026-05-06 10:23 | 22.82589 | 52.40191 | 30753 ft | 511 kts | 92° |
| 2026-05-06 10:23 | 22.82424 | 52.47900 | 30754 ft | 511 kts | 92° |